Google Maps JavaScript API Example
Pilot Flight Report # 91296 Submitted by : AST775 on 2018-05-16
Date: 2018-05-16Aircraft: Boeing 737 MAX7
Flight No.: Not AvailableDistance (Nm): 626.26
Departure: EGFF - CardiffDestination: EDDB - Schonefeld
 TimeFuelWeightSpeeds  
Out (Taxi)1558Z28304 lbs141196 lbs Flight RulesIFR
Off (Takeoff)1559Z 141020 lbs159 ktsFlight Level32000
On (Landing)1746Z 131712 lbs135 ktsVSTD-209 ft/min
In (Ramp)1746Z18818 lbs131712 lbs ZFW112890 lbs
Flight1.80  -  1:479305 lbs  Pax0
Block1.80  -  1:489486 lbs  Cargo0
Departure WeatherEGFF 151557Z 12703KT 58SM SKC 15/10 A302
Destination WeatherEDDB 151746Z 00705KT 5SM FEW005 11/11 A2988
Flight CommentsLeg 23 - EGFF - EDDB